sensor_id;sensor_type;location;lat;lon;timestamp;P1;durP1;ratioP1;P2;durP2;ratioP2
24102;SDS011;12278;53.058;9.028;2023-04-09T00:03:28;49.35;;;28.10;;
24102;SDS011;12278;53.058;9.028;2023-04-09T00:07:29;45.83;;;28.17;;
24102;SDS011;12278;53.058;9.028;2023-04-09T00:11:30;46.27;;;28.37;;
24102;SDS011;12278;53.058;9.028;2023-04-09T00:15:30;46.37;;;26.43;;
24102;SDS011;12278;53.058;9.028;2023-04-09T00:19:32;48.42;;;28.45;;
24102;SDS011;12278;53.058;9.028;2023-04-09T00:23:33;50.80;;;28.95;;
24102;SDS011;12278;53.058;9.028;2023-04-09T00:27:35;45.53;;;27.35;;
24102;SDS011;12278;53.058;9.028;2023-04-09T00:31:36;52.37;;;29.57;;
24102;SDS011;12278;53.058;9.028;2023-04-09T00:35:36;51.87;;;27.97;;
24102;SDS011;12278;53.058;9.028;2023-04-09T00:39:37;53.03;;;27.97;;
24102;SDS011;12278;53.058;9.028;2023-04-09T00:43:38;43.13;;;26.10;;
24102;SDS011;12278;53.058;9.028;2023-04-09T00:47:38;48.90;;;26.87;;
24102;SDS011;12278;53.058;9.028;2023-04-09T00:51:42;48.70;;;26.17;;
24102;SDS011;12278;53.058;9.028;2023-04-09T00:55:44;46.92;;;26.20;;
24102;SDS011;12278;53.058;9.028;2023-04-09T00:59:45;53.15;;;27.15;;
24102;SDS011;12278;53.058;9.028;2023-04-09T01:03:45;45.33;;;27.40;;
24102;SDS011;12278;53.058;9.028;2023-04-09T01:16:48;45.67;;;27.53;;
24102;SDS011;12278;53.058;9.028;2023-04-09T01:25:08;45.78;;;27.77;;
24102;SDS011;12278;53.058;9.028;2023-04-09T01:29:32;40.88;;;25.27;;
24102;SDS011;12278;53.058;9.028;2023-04-09T01:33:36;45.40;;;26.40;;
24102;SDS011;12278;53.058;9.028;2023-04-09T01:37:39;45.57;;;25.27;;
24102;SDS011;12278;53.058;9.028;2023-04-09T01:41:40;37.97;;;25.27;;
24102;SDS011;12278;53.058;9.028;2023-04-09T01:45:42;40.97;;;24.70;;
24102;SDS011;12278;53.058;9.028;2023-04-09T01:49:44;44.17;;;26.35;;
24102;SDS011;12278;53.058;9.028;2023-04-09T01:53:45;44.30;;;25.17;;
24102;SDS011;12278;53.058;9.028;2023-04-09T01:57:46;39.00;;;22.47;;
24102;SDS011;12278;53.058;9.028;2023-04-09T02:01:48;37.97;;;23.73;;
24102;SDS011;12278;53.058;9.028;2023-04-09T02:06:02;39.97;;;22.17;;
24102;SDS011;12278;53.058;9.028;2023-04-09T02:10:18;43.73;;;21.87;;
24102;SDS011;12278;53.058;9.028;2023-04-09T02:14:21;42.33;;;23.73;;
24102;SDS011;12278;53.058;9.028;2023-04-09T02:18:24;35.20;;;21.58;;
24102;SDS011;12278;53.058;9.028;2023-04-09T02:22:27;38.38;;;23.10;;
24102;SDS011;12278;53.058;9.028;2023-04-09T02:26:28;36.00;;;21.90;;
24102;SDS011;12278;53.058;9.028;2023-04-09T02:30:29;41.23;;;22.33;;
24102;SDS011;12278;53.058;9.028;2023-04-09T02:34:30;33.55;;;21.13;;
24102;SDS011;12278;53.058;9.028;2023-04-09T02:38:31;34.30;;;20.73;;
24102;SDS011;12278;53.058;9.028;2023-04-09T02:42:32;39.22;;;20.05;;
24102;SDS011;12278;53.058;9.028;2023-04-09T02:46:32;30.88;;;18.95;;
24102;SDS011;12278;53.058;9.028;2023-04-09T02:50:33;29.92;;;18.88;;
24102;SDS011;12278;53.058;9.028;2023-04-09T02:54:34;32.50;;;18.40;;
24102;SDS011;12278;53.058;9.028;2023-04-09T02:58:34;33.73;;;20.37;;
24102;SDS011;12278;53.058;9.028;2023-04-09T03:02:35;32.43;;;19.27;;
24102;SDS011;12278;53.058;9.028;2023-04-09T03:06:36;30.73;;;17.83;;
24102;SDS011;12278;53.058;9.028;2023-04-09T03:10:37;27.52;;;17.50;;
24102;SDS011;12278;53.058;9.028;2023-04-09T03:14:37;25.55;;;16.70;;
24102;SDS011;12278;53.058;9.028;2023-04-09T03:18:38;27.15;;;16.83;;
24102;SDS011;12278;53.058;9.028;2023-04-09T03:22:39;28.93;;;16.53;;
24102;SDS011;12278;53.058;9.028;2023-04-09T03:26:40;30.02;;;17.52;;
24102;SDS011;12278;53.058;9.028;2023-04-09T03:30:40;29.23;;;18.63;;
24102;SDS011;12278;53.058;9.028;2023-04-09T03:34:41;26.03;;;16.23;;
24102;SDS011;12278;53.058;9.028;2023-04-09T03:38:42;30.58;;;17.65;;
24102;SDS011;12278;53.058;9.028;2023-04-09T03:42:42;27.80;;;16.33;;
24102;SDS011;12278;53.058;9.028;2023-04-09T03:46:43;26.23;;;16.00;;
24102;SDS011;12278;53.058;9.028;2023-04-09T03:50:44;27.77;;;16.90;;
24102;SDS011;12278;53.058;9.028;2023-04-09T03:54:45;27.50;;;16.77;;
24102;SDS011;12278;53.058;9.028;2023-04-09T03:58:45;26.97;;;16.90;;
24102;SDS011;12278;53.058;9.028;2023-04-09T04:02:48;27.93;;;15.70;;
24102;SDS011;12278;53.058;9.028;2023-04-09T04:06:49;27.83;;;17.37;;
24102;SDS011;12278;53.058;9.028;2023-04-09T04:10:50;28.37;;;17.10;;
24102;SDS011;12278;53.058;9.028;2023-04-09T04:14:50;27.70;;;17.40;;
24102;SDS011;12278;53.058;9.028;2023-04-09T04:18:51;26.73;;;15.50;;
24102;SDS011;12278;53.058;9.028;2023-04-09T04:22:52;31.27;;;17.13;;
24102;SDS011;12278;53.058;9.028;2023-04-09T04:26:52;28.23;;;17.40;;
24102;SDS011;12278;53.058;9.028;2023-04-09T04:30:53;30.90;;;17.60;;
24102;SDS011;12278;53.058;9.028;2023-04-09T04:34:54;34.20;;;19.37;;
24102;SDS011;12278;53.058;9.028;2023-04-09T04:38:55;38.63;;;21.37;;
24102;SDS011;12278;53.058;9.028;2023-04-09T04:42:55;31.70;;;20.60;;
24102;SDS011;12278;53.058;9.028;2023-04-09T04:46:56;37.80;;;23.10;;
24102;SDS011;12278;53.058;9.028;2023-04-09T04:50:57;42.17;;;23.03;;
24102;SDS011;12278;53.058;9.028;2023-04-09T04:54:59;39.70;;;24.40;;
24102;SDS011;12278;53.058;9.028;2023-04-09T04:59:00;43.17;;;24.17;;
24102;SDS011;12278;53.058;9.028;2023-04-09T05:03:00;37.30;;;22.00;;
24102;SDS011;12278;53.058;9.028;2023-04-09T05:07:01;37.47;;;22.43;;
24102;SDS011;12278;53.058;9.028;2023-04-09T05:11:02;38.50;;;23.37;;
24102;SDS011;12278;53.058;9.028;2023-04-09T05:15:02;38.40;;;21.73;;
24102;SDS011;12278;53.058;9.028;2023-04-09T05:19:03;34.93;;;22.23;;
24102;SDS011;12278;53.058;9.028;2023-04-09T05:23:04;35.70;;;22.67;;
24102;SDS011;12278;53.058;9.028;2023-04-09T05:27:07;35.57;;;20.70;;
24102;SDS011;12278;53.058;9.028;2023-04-09T05:31:08;38.23;;;22.33;;
24102;SDS011;12278;53.058;9.028;2023-04-09T05:35:11;35.77;;;20.77;;
24102;SDS011;12278;53.058;9.028;2023-04-09T05:39:12;32.80;;;20.00;;
24102;SDS011;12278;53.058;9.028;2023-04-09T05:43:16;31.97;;;20.73;;
24102;SDS011;12278;53.058;9.028;2023-04-09T05:47:17;31.10;;;19.87;;
24102;SDS011;12278;53.058;9.028;2023-04-09T05:51:31;31.90;;;19.37;;
24102;SDS011;12278;53.058;9.028;2023-04-09T05:55:31;31.40;;;19.07;;
24102;SDS011;12278;53.058;9.028;2023-04-09T05:59:32;28.33;;;18.27;;
24102;SDS011;12278;53.058;9.028;2023-04-09T06:07:38;33.60;;;20.03;;
24102;SDS011;12278;53.058;9.028;2023-04-09T06:11:39;28.95;;;18.80;;
24102;SDS011;12278;53.058;9.028;2023-04-09T06:15:41;28.98;;;17.35;;
24102;SDS011;12278;53.058;9.028;2023-04-09T06:19:43;28.40;;;17.42;;
24102;SDS011;12278;53.058;9.028;2023-04-09T06:23:49;26.65;;;16.90;;
24102;SDS011;12278;53.058;9.028;2023-04-09T06:27:52;26.33;;;17.50;;
24102;SDS011;12278;53.058;9.028;2023-04-09T06:31:52;26.05;;;16.77;;
24102;SDS011;12278;53.058;9.028;2023-04-09T06:39:58;21.02;;;14.73;;
24102;SDS011;12278;53.058;9.028;2023-04-09T06:43:59;25.73;;;15.68;;
24102;SDS011;12278;53.058;9.028;2023-04-09T06:48:02;24.35;;;15.80;;
24102;SDS011;12278;53.058;9.028;2023-04-09T06:52:03;23.83;;;14.45;;
24102;SDS011;12278;53.058;9.028;2023-04-09T06:56:06;23.83;;;15.13;;
24102;SDS011;12278;53.058;9.028;2023-04-09T07:04:30;23.73;;;14.10;;
24102;SDS011;12278;53.058;9.028;2023-04-09T07:08:31;22.55;;;15.18;;
24102;SDS011;12278;53.058;9.028;2023-04-09T07:12:32;22.88;;;15.30;;
24102;SDS011;12278;53.058;9.028;2023-04-09T07:16:34;19.00;;;14.52;;
24102;SDS011;12278;53.058;9.028;2023-04-09T07:20:43;20.23;;;13.60;;
24102;SDS011;12278;53.058;9.028;2023-04-09T07:25:11;21.38;;;14.13;;
24102;SDS011;12278;53.058;9.028;2023-04-09T07:29:12;20.80;;;13.45;;
24102;SDS011;12278;53.058;9.028;2023-04-09T07:33:13;18.85;;;13.02;;
24102;SDS011;12278;53.058;9.028;2023-04-09T07:37:14;19.58;;;13.05;;
24102;SDS011;12278;53.058;9.028;2023-04-09T07:41:15;21.45;;;12.88;;
24102;SDS011;12278;53.058;9.028;2023-04-09T07:45:16;22.45;;;13.20;;
24102;SDS011;12278;53.058;9.028;2023-04-09T07:49:17;16.92;;;12.27;;
24102;SDS011;12278;53.058;9.028;2023-04-09T07:53:18;18.98;;;13.18;;
24102;SDS011;12278;53.058;9.028;2023-04-09T07:57:18;17.83;;;13.05;;
24102;SDS011;12278;53.058;9.028;2023-04-09T08:01:19;18.58;;;13.32;;
24102;SDS011;12278;53.058;9.028;2023-04-09T08:05:23;17.27;;;12.70;;
24102;SDS011;12278;53.058;9.028;2023-04-09T08:09:24;17.85;;;13.10;;
24102;SDS011;12278;53.058;9.028;2023-04-09T08:13:25;18.50;;;13.63;;
24102;SDS011;12278;53.058;9.028;2023-04-09T08:17:26;20.38;;;13.32;;
24102;SDS011;12278;53.058;9.028;2023-04-09T08:21:26;21.40;;;12.82;;
24102;SDS011;12278;53.058;9.028;2023-04-09T08:25:28;19.05;;;12.73;;
24102;SDS011;12278;53.058;9.028;2023-04-09T08:29:28;19.63;;;12.30;;
24102;SDS011;12278;53.058;9.028;2023-04-09T08:33:30;18.02;;;12.43;;
24102;SDS011;12278;53.058;9.028;2023-04-09T08:37:31;15.82;;;12.68;;
24102;SDS011;12278;53.058;9.028;2023-04-09T08:41:32;18.83;;;13.18;;
24102;SDS011;12278;53.058;9.028;2023-04-09T08:45:35;17.25;;;12.63;;
24102;SDS011;12278;53.058;9.028;2023-04-09T08:49:39;18.40;;;11.82;;
24102;SDS011;12278;53.058;9.028;2023-04-09T08:53:51;16.40;;;11.40;;
24102;SDS011;12278;53.058;9.028;2023-04-09T08:57:58;17.17;;;12.02;;
24102;SDS011;12278;53.058;9.028;2023-04-09T09:02:06;19.35;;;13.00;;
24102;SDS011;12278;53.058;9.028;2023-04-09T09:06:19;16.00;;;11.45;;
24102;SDS011;12278;53.058;9.028;2023-04-09T09:10:21;16.08;;;12.13;;
24102;SDS011;12278;53.058;9.028;2023-04-09T09:14:38;16.13;;;11.48;;
24102;SDS011;12278;53.058;9.028;2023-04-09T09:18:40;16.88;;;12.35;;
24102;SDS011;12278;53.058;9.028;2023-04-09T09:22:49;17.02;;;11.95;;
24102;SDS011;12278;53.058;9.028;2023-04-09T09:26:51;17.05;;;11.10;;
24102;SDS011;12278;53.058;9.028;2023-04-09T09:30:53;17.10;;;12.50;;
24102;SDS011;12278;53.058;9.028;2023-04-09T09:35:06;17.63;;;12.70;;
24102;SDS011;12278;53.058;9.028;2023-04-09T09:39:07;14.55;;;10.98;;
24102;SDS011;12278;53.058;9.028;2023-04-09T09:43:12;17.38;;;11.82;;
24102;SDS011;12278;53.058;9.028;2023-04-09T09:47:13;16.17;;;11.98;;
24102;SDS011;12278;53.058;9.028;2023-04-09T09:51:15;18.50;;;11.85;;
24102;SDS011;12278;53.058;9.028;2023-04-09T09:55:18;17.88;;;12.40;;
24102;SDS011;12278;53.058;9.028;2023-04-09T09:59:22;14.80;;;11.90;;
24102;SDS011;12278;53.058;9.028;2023-04-09T10:03:28;14.10;;;10.75;;
24102;SDS011;12278;53.058;9.028;2023-04-09T10:07:36;15.57;;;10.77;;
24102;SDS011;12278;53.058;9.028;2023-04-09T10:11:38;14.73;;;10.65;;
24102;SDS011;12278;53.058;9.028;2023-04-09T10:15:43;16.90;;;11.07;;
24102;SDS011;12278;53.058;9.028;2023-04-09T10:19:53;18.70;;;12.10;;
24102;SDS011;12278;53.058;9.028;2023-04-09T10:24:15;12.75;;;9.98;;
24102;SDS011;12278;53.058;9.028;2023-04-09T10:28:17;12.98;;;10.75;;
24102;SDS011;12278;53.058;9.028;2023-04-09T10:32:18;13.77;;;11.15;;
24102;SDS011;12278;53.058;9.028;2023-04-09T10:36:20;13.95;;;10.57;;
24102;SDS011;12278;53.058;9.028;2023-04-09T10:40:27;14.63;;;11.07;;
24102;SDS011;12278;53.058;9.028;2023-04-09T10:44:28;15.20;;;10.60;;
24102;SDS011;12278;53.058;9.028;2023-04-09T10:48:31;13.25;;;10.70;;
24102;SDS011;12278;53.058;9.028;2023-04-09T10:52:34;13.30;;;10.88;;
24102;SDS011;12278;53.058;9.028;2023-04-09T10:56:34;16.00;;;11.43;;
24102;SDS011;12278;53.058;9.028;2023-04-09T11:00:39;15.25;;;12.13;;
24102;SDS011;12278;53.058;9.028;2023-04-09T11:04:50;14.63;;;11.73;;
24102;SDS011;12278;53.058;9.028;2023-04-09T11:09:00;14.02;;;10.70;;
24102;SDS011;12278;53.058;9.028;2023-04-09T11:13:02;14.20;;;10.65;;
24102;SDS011;12278;53.058;9.028;2023-04-09T11:17:03;14.98;;;11.98;;
24102;SDS011;12278;53.058;9.028;2023-04-09T11:21:03;14.15;;;11.23;;
24102;SDS011;12278;53.058;9.028;2023-04-09T11:25:05;12.43;;;9.93;;
24102;SDS011;12278;53.058;9.028;2023-04-09T11:33:22;15.85;;;11.43;;
24102;SDS011;12278;53.058;9.028;2023-04-09T11:37:30;13.95;;;11.23;;
24102;SDS011;12278;53.058;9.028;2023-04-09T11:41:40;11.93;;;10.07;;
24102;SDS011;12278;53.058;9.028;2023-04-09T11:45:41;12.90;;;10.02;;
24102;SDS011;12278;53.058;9.028;2023-04-09T11:49:43;12.80;;;10.18;;
24102;SDS011;12278;53.058;9.028;2023-04-09T11:53:47;14.50;;;10.48;;
24102;SDS011;12278;53.058;9.028;2023-04-09T11:57:49;12.95;;;9.90;;
24102;SDS011;12278;53.058;9.028;2023-04-09T12:01:51;13.52;;;10.48;;
24102;SDS011;12278;53.058;9.028;2023-04-09T12:05:52;12.07;;;8.98;;
24102;SDS011;12278;53.058;9.028;2023-04-09T12:09:52;11.32;;;9.80;;
24102;SDS011;12278;53.058;9.028;2023-04-09T12:14:03;11.77;;;9.40;;
24102;SDS011;12278;53.058;9.028;2023-04-09T12:18:06;12.10;;;9.68;;
24102;SDS011;12278;53.058;9.028;2023-04-09T12:22:08;10.93;;;8.70;;
24102;SDS011;12278;53.058;9.028;2023-04-09T12:26:11;9.63;;;8.18;;
24102;SDS011;12278;53.058;9.028;2023-04-09T12:30:12;10.13;;;7.30;;
24102;SDS011;12278;53.058;9.028;2023-04-09T12:34:13;9.50;;;6.75;;
24102;SDS011;12278;53.058;9.028;2023-04-09T12:38:14;9.95;;;8.90;;
24102;SDS011;12278;53.058;9.028;2023-04-09T12:42:14;10.73;;;8.50;;
24102;SDS011;12278;53.058;9.028;2023-04-09T12:46:16;9.30;;;7.78;;
24102;SDS011;12278;53.058;9.028;2023-04-09T12:50:18;9.65;;;7.40;;
24102;SDS011;12278;53.058;9.028;2023-04-09T12:54:19;8.25;;;7.45;;
24102;SDS011;12278;53.058;9.028;2023-04-09T12:58:24;11.57;;;8.43;;
24102;SDS011;12278;53.058;9.028;2023-04-09T13:02:25;9.18;;;8.02;;
24102;SDS011;12278;53.058;9.028;2023-04-09T13:06:28;11.20;;;8.25;;
24102;SDS011;12278;53.058;9.028;2023-04-09T13:10:29;11.93;;;8.55;;
24102;SDS011;12278;53.058;9.028;2023-04-09T13:14:30;10.45;;;8.65;;
24102;SDS011;12278;53.058;9.028;2023-04-09T13:18:31;12.80;;;8.95;;
24102;SDS011;12278;53.058;9.028;2023-04-09T13:22:35;11.18;;;9.52;;
24102;SDS011;12278;53.058;9.028;2023-04-09T13:26:35;10.65;;;8.27;;
24102;SDS011;12278;53.058;9.028;2023-04-09T13:30:36;9.50;;;7.97;;
24102;SDS011;12278;53.058;9.028;2023-04-09T13:34:37;9.38;;;7.65;;
24102;SDS011;12278;53.058;9.028;2023-04-09T13:38:38;9.32;;;8.05;;
24102;SDS011;12278;53.058;9.028;2023-04-09T13:42:39;12.32;;;8.98;;
24102;SDS011;12278;53.058;9.028;2023-04-09T13:46:40;9.50;;;8.13;;
24102;SDS011;12278;53.058;9.028;2023-04-09T13:50:40;9.98;;;8.43;;
24102;SDS011;12278;53.058;9.028;2023-04-09T13:54:41;8.98;;;7.90;;
24102;SDS011;12278;53.058;9.028;2023-04-09T13:58:42;9.95;;;8.30;;
24102;SDS011;12278;53.058;9.028;2023-04-09T14:02:44;11.65;;;9.85;;
24102;SDS011;12278;53.058;9.028;2023-04-09T14:06:45;10.27;;;8.57;;
24102;SDS011;12278;53.058;9.028;2023-04-09T14:10:50;16.33;;;13.40;;
24102;SDS011;12278;53.058;9.028;2023-04-09T14:14:57;10.65;;;8.98;;
24102;SDS011;12278;53.058;9.028;2023-04-09T14:18:58;9.45;;;8.27;;
24102;SDS011;12278;53.058;9.028;2023-04-09T14:23:02;11.05;;;9.52;;
24102;SDS011;12278;53.058;9.028;2023-04-09T14:27:02;9.98;;;7.93;;
24102;SDS011;12278;53.058;9.028;2023-04-09T14:31:03;11.05;;;8.30;;
24102;SDS011;12278;53.058;9.028;2023-04-09T14:35:05;10.25;;;8.82;;
24102;SDS011;12278;53.058;9.028;2023-04-09T14:39:07;12.32;;;9.27;;
24102;SDS011;12278;53.058;9.028;2023-04-09T14:47:08;11.23;;;8.80;;
24102;SDS011;12278;53.058;9.028;2023-04-09T14:51:09;11.05;;;9.95;;
24102;SDS011;12278;53.058;9.028;2023-04-09T14:55:10;10.80;;;9.63;;
24102;SDS011;12278;53.058;9.028;2023-04-09T14:59:11;11.20;;;9.15;;
24102;SDS011;12278;53.058;9.028;2023-04-09T15:03:12;12.30;;;10.10;;
24102;SDS011;12278;53.058;9.028;2023-04-09T15:07:14;10.80;;;8.88;;
24102;SDS011;12278;53.058;9.028;2023-04-09T15:11:15;11.23;;;8.85;;
24102;SDS011;12278;53.058;9.028;2023-04-09T15:15:17;10.80;;;9.05;;
24102;SDS011;12278;53.058;9.028;2023-04-09T15:19:17;12.07;;;9.10;;
24102;SDS011;12278;53.058;9.028;2023-04-09T15:23:18;13.00;;;9.88;;
24102;SDS011;12278;53.058;9.028;2023-04-09T15:27:19;13.75;;;10.27;;
24102;SDS011;12278;53.058;9.028;2023-04-09T15:31:19;12.35;;;10.43;;
24102;SDS011;12278;53.058;9.028;2023-04-09T15:35:20;16.20;;;12.40;;
24102;SDS011;12278;53.058;9.028;2023-04-09T15:39:25;21.73;;;18.27;;
24102;SDS011;12278;53.058;9.028;2023-04-09T15:43:27;35.70;;;26.92;;
24102;SDS011;12278;53.058;9.028;2023-04-09T15:47:28;62.55;;;44.38;;
24102;SDS011;12278;53.058;9.028;2023-04-09T15:51:28;19.15;;;14.13;;
24102;SDS011;12278;53.058;9.028;2023-04-09T15:55:30;19.70;;;16.15;;
24102;SDS011;12278;53.058;9.028;2023-04-09T15:59:31;25.42;;;20.10;;
24102;SDS011;12278;53.058;9.028;2023-04-09T16:03:32;20.20;;;15.18;;
24102;SDS011;12278;53.058;9.028;2023-04-09T16:07:38;19.63;;;15.02;;
24102;SDS011;12278;53.058;9.028;2023-04-09T16:11:39;20.75;;;14.93;;
24102;SDS011;12278;53.058;9.028;2023-04-09T16:15:39;20.95;;;17.17;;
24102;SDS011;12278;53.058;9.028;2023-04-09T16:19:40;17.67;;;13.55;;
24102;SDS011;12278;53.058;9.028;2023-04-09T16:23:42;19.35;;;14.40;;
24102;SDS011;12278;53.058;9.028;2023-04-09T16:27:42;17.30;;;14.10;;
24102;SDS011;12278;53.058;9.028;2023-04-09T16:31:43;18.58;;;13.75;;
24102;SDS011;12278;53.058;9.028;2023-04-09T16:35:44;17.00;;;13.55;;
24102;SDS011;12278;53.058;9.028;2023-04-09T16:39:44;17.88;;;13.90;;
24102;SDS011;12278;53.058;9.028;2023-04-09T16:43:45;18.58;;;12.65;;
24102;SDS011;12278;53.058;9.028;2023-04-09T16:47:49;20.40;;;14.55;;
24102;SDS011;12278;53.058;9.028;2023-04-09T16:51:50;20.60;;;14.88;;
24102;SDS011;12278;53.058;9.028;2023-04-09T16:55:52;19.00;;;15.60;;
24102;SDS011;12278;53.058;9.028;2023-04-09T16:59:52;19.63;;;15.27;;
24102;SDS011;12278;53.058;9.028;2023-04-09T17:03:53;21.52;;;15.65;;
24102;SDS011;12278;53.058;9.028;2023-04-09T17:07:55;21.13;;;16.80;;
24102;SDS011;12278;53.058;9.028;2023-04-09T17:11:56;20.20;;;16.35;;
24102;SDS011;12278;53.058;9.028;2023-04-09T17:15:57;24.63;;;16.35;;
24102;SDS011;12278;53.058;9.028;2023-04-09T17:19:58;21.23;;;15.52;;
24102;SDS011;12278;53.058;9.028;2023-04-09T17:24:00;23.08;;;17.23;;
24102;SDS011;12278;53.058;9.028;2023-04-09T17:28:01;21.00;;;15.73;;
24102;SDS011;12278;53.058;9.028;2023-04-09T17:32:04;32.95;;;17.08;;
24102;SDS011;12278;53.058;9.028;2023-04-09T17:36:05;22.83;;;16.38;;
24102;SDS011;12278;53.058;9.028;2023-04-09T17:40:06;24.35;;;16.75;;
24102;SDS011;12278;53.058;9.028;2023-04-09T17:44:07;21.08;;;16.50;;
24102;SDS011;12278;53.058;9.028;2023-04-09T17:48:08;24.73;;;17.45;;
24102;SDS011;12278;53.058;9.028;2023-04-09T17:52:08;26.00;;;19.05;;
24102;SDS011;12278;53.058;9.028;2023-04-09T17:56:13;26.00;;;18.10;;
24102;SDS011;12278;53.058;9.028;2023-04-09T18:00:21;28.25;;;19.27;;
24102;SDS011;12278;53.058;9.028;2023-04-09T18:04:22;23.92;;;16.90;;
24102;SDS011;12278;53.058;9.028;2023-04-09T18:08:23;25.75;;;17.90;;
24102;SDS011;12278;53.058;9.028;2023-04-09T18:12:24;25.15;;;18.13;;
24102;SDS011;12278;53.058;9.028;2023-04-09T18:16:25;27.60;;;19.38;;
24102;SDS011;12278;53.058;9.028;2023-04-09T18:20:26;27.80;;;19.05;;
24102;SDS011;12278;53.058;9.028;2023-04-09T18:24:28;25.10;;;18.17;;
24102;SDS011;12278;53.058;9.028;2023-04-09T18:28:29;27.40;;;18.92;;
24102;SDS011;12278;53.058;9.028;2023-04-09T18:32:29;25.85;;;18.92;;
24102;SDS011;12278;53.058;9.028;2023-04-09T18:36:31;24.98;;;17.80;;
24102;SDS011;12278;53.058;9.028;2023-04-09T18:40:31;24.45;;;17.33;;
24102;SDS011;12278;53.058;9.028;2023-04-09T18:44:38;29.60;;;20.33;;
24102;SDS011;12278;53.058;9.028;2023-04-09T18:48:39;26.15;;;19.75;;
24102;SDS011;12278;53.058;9.028;2023-04-09T18:52:42;25.58;;;17.75;;
24102;SDS011;12278;53.058;9.028;2023-04-09T18:56:43;25.55;;;18.40;;
24102;SDS011;12278;53.058;9.028;2023-04-09T19:00:45;25.00;;;17.88;;
24102;SDS011;12278;53.058;9.028;2023-04-09T19:04:51;25.80;;;18.45;;
24102;SDS011;12278;53.058;9.028;2023-04-09T19:08:58;25.05;;;18.77;;
24102;SDS011;12278;53.058;9.028;2023-04-09T19:12:59;31.67;;;20.02;;
24102;SDS011;12278;53.058;9.028;2023-04-09T19:17:00;27.33;;;19.23;;
24102;SDS011;12278;53.058;9.028;2023-04-09T19:21:01;25.98;;;19.10;;
24102;SDS011;12278;53.058;9.028;2023-04-09T19:25:02;26.45;;;17.83;;
24102;SDS011;12278;53.058;9.028;2023-04-09T19:29:03;25.98;;;18.17;;
24102;SDS011;12278;53.058;9.028;2023-04-09T19:33:05;26.23;;;18.35;;
24102;SDS011;12278;53.058;9.028;2023-04-09T19:37:06;25.27;;;18.35;;
24102;SDS011;12278;53.058;9.028;2023-04-09T19:41:06;23.58;;;17.20;;
24102;SDS011;12278;53.058;9.028;2023-04-09T19:45:07;23.35;;;17.25;;
24102;SDS011;12278;53.058;9.028;2023-04-09T19:49:08;23.27;;;17.75;;
24102;SDS011;12278;53.058;9.028;2023-04-09T19:53:09;26.17;;;18.92;;
24102;SDS011;12278;53.058;9.028;2023-04-09T19:57:10;25.45;;;18.77;;
24102;SDS011;12278;53.058;9.028;2023-04-09T20:01:11;27.75;;;18.13;;
24102;SDS011;12278;53.058;9.028;2023-04-09T20:05:12;25.55;;;18.15;;
24102;SDS011;12278;53.058;9.028;2023-04-09T20:09:13;30.00;;;19.27;;
24102;SDS011;12278;53.058;9.028;2023-04-09T20:13:16;26.02;;;18.23;;
24102;SDS011;12278;53.058;9.028;2023-04-09T20:17:17;27.48;;;19.80;;
24102;SDS011;12278;53.058;9.028;2023-04-09T20:21:19;28.88;;;19.25;;
24102;SDS011;12278;53.058;9.028;2023-04-09T20:25:20;27.42;;;18.30;;
24102;SDS011;12278;53.058;9.028;2023-04-09T20:29:21;27.38;;;18.58;;
24102;SDS011;12278;53.058;9.028;2023-04-09T20:33:21;26.40;;;18.13;;
24102;SDS011;12278;53.058;9.028;2023-04-09T20:37:22;27.70;;;19.33;;
24102;SDS011;12278;53.058;9.028;2023-04-09T20:41:23;27.33;;;19.50;;
24102;SDS011;12278;53.058;9.028;2023-04-09T20:45:23;28.85;;;19.55;;
24102;SDS011;12278;53.058;9.028;2023-04-09T20:49:24;26.83;;;18.83;;
24102;SDS011;12278;53.058;9.028;2023-04-09T20:53:25;27.15;;;18.75;;
24102;SDS011;12278;53.058;9.028;2023-04-09T20:57:25;28.45;;;18.10;;
24102;SDS011;12278;53.058;9.028;2023-04-09T21:01:27;30.25;;;19.70;;
24102;SDS011;12278;53.058;9.028;2023-04-09T21:05:27;27.80;;;19.35;;
24102;SDS011;12278;53.058;9.028;2023-04-09T21:09:28;24.45;;;17.88;;
24102;SDS011;12278;53.058;9.028;2023-04-09T21:13:30;24.95;;;17.60;;
24102;SDS011;12278;53.058;9.028;2023-04-09T21:17:31;24.67;;;17.08;;
24102;SDS011;12278;53.058;9.028;2023-04-09T21:21:32;23.60;;;17.30;;
24102;SDS011;12278;53.058;9.028;2023-04-09T21:25:33;26.95;;;18.10;;
24102;SDS011;12278;53.058;9.028;2023-04-09T21:29:34;25.55;;;17.52;;
24102;SDS011;12278;53.058;9.028;2023-04-09T21:33:35;26.63;;;16.63;;
24102;SDS011;12278;53.058;9.028;2023-04-09T21:37:37;25.45;;;17.55;;
24102;SDS011;12278;53.058;9.028;2023-04-09T21:41:38;23.17;;;16.15;;
24102;SDS011;12278;53.058;9.028;2023-04-09T21:45:39;23.30;;;15.77;;
24102;SDS011;12278;53.058;9.028;2023-04-09T21:49:40;24.50;;;16.48;;
24102;SDS011;12278;53.058;9.028;2023-04-09T21:53:42;24.00;;;16.27;;
24102;SDS011;12278;53.058;9.028;2023-04-09T21:57:42;23.80;;;17.17;;
24102;SDS011;12278;53.058;9.028;2023-04-09T22:01:43;22.42;;;16.52;;
24102;SDS011;12278;53.058;9.028;2023-04-09T22:05:44;23.63;;;16.80;;
24102;SDS011;12278;53.058;9.028;2023-04-09T22:09:45;27.52;;;16.17;;
24102;SDS011;12278;53.058;9.028;2023-04-09T22:13:46;25.17;;;16.10;;
24102;SDS011;12278;53.058;9.028;2023-04-09T22:17:46;25.42;;;17.95;;
24102;SDS011;12278;53.058;9.028;2023-04-09T22:21:47;24.77;;;16.13;;
24102;SDS011;12278;53.058;9.028;2023-04-09T22:25:49;21.75;;;15.05;;
24102;SDS011;12278;53.058;9.028;2023-04-09T22:29:57;24.13;;;16.85;;
24102;SDS011;12278;53.058;9.028;2023-04-09T22:33:57;25.95;;;18.40;;
24102;SDS011;12278;53.058;9.028;2023-04-09T22:37:59;35.47;;;20.70;;
24102;SDS011;12278;53.058;9.028;2023-04-09T22:41:59;40.25;;;25.42;;
24102;SDS011;12278;53.058;9.028;2023-04-09T22:46:01;46.95;;;29.20;;
24102;SDS011;12278;53.058;9.028;2023-04-09T22:50:03;47.70;;;31.23;;
24102;SDS011;12278;53.058;9.028;2023-04-09T22:54:04;50.25;;;30.48;;
24102;SDS011;12278;53.058;9.028;2023-04-09T22:58:05;41.83;;;25.13;;
24102;SDS011;12278;53.058;9.028;2023-04-09T23:02:05;36.28;;;22.20;;
24102;SDS011;12278;53.058;9.028;2023-04-09T23:06:06;35.22;;;22.50;;
24102;SDS011;12278;53.058;9.028;2023-04-09T23:10:07;38.03;;;22.38;;
24102;SDS011;12278;53.058;9.028;2023-04-09T23:14:08;30.45;;;20.80;;
24102;SDS011;12278;53.058;9.028;2023-04-09T23:18:09;34.10;;;21.27;;
24102;SDS011;12278;53.058;9.028;2023-04-09T23:22:10;27.33;;;20.13;;
24102;SDS011;12278;53.058;9.028;2023-04-09T23:26:10;28.65;;;18.90;;
24102;SDS011;12278;53.058;9.028;2023-04-09T23:30:11;26.95;;;18.95;;
24102;SDS011;12278;53.058;9.028;2023-04-09T23:34:15;34.22;;;21.45;;
24102;SDS011;12278;53.058;9.028;2023-04-09T23:38:16;29.80;;;19.23;;
24102;SDS011;12278;53.058;9.028;2023-04-09T23:42:17;29.08;;;20.13;;
24102;SDS011;12278;53.058;9.028;2023-04-09T23:46:31;30.42;;;20.05;;
24102;SDS011;12278;53.058;9.028;2023-04-09T23:50:31;34.67;;;21.13;;
24102;SDS011;12278;53.058;9.028;2023-04-09T23:54:32;34.65;;;22.00;;
24102;SDS011;12278;53.058;9.028;2023-04-09T23:58:32;31.05;;;20.27;;
